Terminal Aerodrome Forecast
Issued by NWS Twin Cities, MN

Home | Current Version | Previous Version | Graphics & Text | Print | Product List | Glossary On
Versions: 1 2 3 4 5 6 7 8 9 10 11 12 13 14 15 16 17 18 19 20 21 22 23 24 25 26 27 28 29 30 31 32
000
FTUS43 KMPX 010900 AAB
TAFMSP
TAF AMD
KMSP 010926Z 0109/0212 23003KT 6SM BR VCSH SCT008 OVC015
      TEMPO 0110/0113 4SM -SHRA BKN008
     FM011500 30012G20KT P6SM SCT040
     FM020100 27007KT P6SM SCT050 BKN090=

USA.gov is the U.S. government's official web portal to all federal, state and local government web resources and services.